sensor_id;sensor_type;location;lat;lon;timestamp;pressure;altitude;pressure_sealevel;temperature;humidity
8294;BME280;4185;41.506;24.938;2024-02-15T00:00:17;93634.47;;;5.87;77.97
8294;BME280;4185;41.506;24.938;2024-02-15T00:02:44;93638.69;;;5.88;77.60
8294;BME280;4185;41.506;24.938;2024-02-15T00:05:11;93634.94;;;5.86;77.71
8294;BME280;4185;41.506;24.938;2024-02-15T00:07:40;93636.97;;;5.82;77.86
8294;BME280;4185;41.506;24.938;2024-02-15T00:10:08;93640.28;;;5.77;78.37
8294;BME280;4185;41.506;24.938;2024-02-15T00:12:35;93639.72;;;5.73;79.53
8294;BME280;4185;41.506;24.938;2024-02-15T00:15:02;93634.03;;;5.71;78.75
8294;BME280;4185;41.506;24.938;2024-02-15T00:17:29;93642.72;;;5.75;78.79
8294;BME280;4185;41.506;24.938;2024-02-15T00:19:56;93642.84;;;5.71;79.31
8294;BME280;4185;41.506;24.938;2024-02-15T00:22:23;93638.06;;;5.66;78.57
8294;BME280;4185;41.506;24.938;2024-02-15T00:24:49;93649.31;;;5.65;78.87
8294;BME280;4185;41.506;24.938;2024-02-15T00:27:18;93648.41;;;5.68;78.65
8294;BME280;4185;41.506;24.938;2024-02-15T00:29:45;93642.72;;;5.66;78.86
8294;BME280;4185;41.506;24.938;2024-02-15T00:32:12;93638.53;;;5.65;78.98
8294;BME280;4185;41.506;24.938;2024-02-15T00:34:39;93626.38;;;5.60;78.87
8294;BME280;4185;41.506;24.938;2024-02-15T00:37:06;93637.31;;;5.57;79.78
8294;BME280;4185;41.506;24.938;2024-02-15T00:39:33;93634.63;;;5.57;78.72
8294;BME280;4185;41.506;24.938;2024-02-15T00:41:59;93631.19;;;5.56;79.09
8294;BME280;4185;41.506;24.938;2024-02-15T00:44:28;93632.53;;;5.61;78.96
8294;BME280;4185;41.506;24.938;2024-02-15T00:46:54;93628.63;;;5.62;79.63
8294;BME280;4185;41.506;24.938;2024-02-15T00:49:21;93628.63;;;5.62;79.77
8294;BME280;4185;41.506;24.938;2024-02-15T00:51:48;93625.47;;;5.63;79.46
8294;BME280;4185;41.506;24.938;2024-02-15T00:54:15;93625.34;;;5.58;80.04
8294;BME280;4185;41.506;24.938;2024-02-15T00:56:42;93628.63;;;5.62;79.89
8294;BME280;4185;41.506;24.938;2024-02-15T00:59:08;93623.84;;;5.57;80.81
8294;BME280;4185;41.506;24.938;2024-02-15T01:01:37;93614.56;;;5.49;80.99
8294;BME280;4185;41.506;24.938;2024-02-15T01:04:04;93626.81;;;5.50;81.09
8294;BME280;4185;41.506;24.938;2024-02-15T01:06:31;93618.31;;;5.51;81.46
8294;BME280;4185;41.506;24.938;2024-02-15T01:08:58;93626.56;;;5.48;82.11
8294;BME280;4185;41.506;24.938;2024-02-15T01:11:26;93627.75;;;5.47;82.03
8294;BME280;4185;41.506;24.938;2024-02-15T01:13:55;93625.06;;;5.38;82.24
8294;BME280;4185;41.506;24.938;2024-02-15T01:16:21;93618.91;;;5.37;83.07
8294;BME280;4185;41.506;24.938;2024-02-15T01:18:51;93620.84;;;5.37;82.18
8294;BME280;4185;41.506;24.938;2024-02-15T01:21:18;93620.84;;;5.37;82.45
8294;BME280;4185;41.506;24.938;2024-02-15T01:23:44;93613.97;;;5.36;82.62
8294;BME280;4185;41.506;24.938;2024-02-15T01:26:12;93606.94;;;5.38;82.38
8294;BME280;4185;41.506;24.938;2024-02-15T01:28:40;93611.59;;;5.38;81.67
8294;BME280;4185;41.506;24.938;2024-02-15T01:31:08;93612.78;;;5.37;81.63
8294;BME280;4185;41.506;24.938;2024-02-15T01:33:36;93611.44;;;5.32;82.21
8294;BME280;4185;41.506;24.938;2024-02-15T01:36:05;93602.00;;;5.19;82.99
8294;BME280;4185;41.506;24.938;2024-02-15T01:38:33;93602.00;;;5.19;83.63
8294;BME280;4185;41.506;24.938;2024-02-15T01:41:00;93606.19;;;5.20;84.36
8294;BME280;4185;41.506;24.938;2024-02-15T01:43:27;93605.00;;;5.21;83.93
8294;BME280;4185;41.506;24.938;2024-02-15T01:45:54;93611.56;;;5.20;83.95
8294;BME280;4185;41.506;24.938;2024-02-15T01:48:22;93608.28;;;5.16;83.66
8294;BME280;4185;41.506;24.938;2024-02-15T01:50:48;93613.53;;;5.19;84.59
8294;BME280;4185;41.506;24.938;2024-02-15T01:53:18;93615.47;;;5.19;84.31
8294;BME280;4185;41.506;24.938;2024-02-15T01:55:45;93619.81;;;5.25;84.61
8294;BME280;4185;41.506;24.938;2024-02-15T01:58:13;93617.13;;;5.25;83.98
8294;BME280;4185;41.506;24.938;2024-02-15T02:00:40;93623.25;;;5.26;84.05
8294;BME280;4185;41.506;24.938;2024-02-15T02:03:08;93617.59;;;5.33;83.70
8294;BME280;4185;41.506;24.938;2024-02-15T02:05:37;93629.53;;;5.32;84.00
8294;BME280;4185;41.506;24.938;2024-02-15T02:08:04;93618.91;;;5.28;84.34
8294;BME280;4185;41.506;24.938;2024-02-15T02:10:36;93626.22;;;5.28;84.01
8294;BME280;4185;41.506;24.938;2024-02-15T02:13:03;93631.03;;;5.24;84.79
8294;BME280;4185;41.506;24.938;2024-02-15T02:15:31;93628.94;;;5.19;85.16
8294;BME280;4185;41.506;24.938;2024-02-15T02:17:58;93624.44;;;5.16;84.99
8294;BME280;4185;41.506;24.938;2024-02-15T02:20:25;93633.69;;;5.15;84.46
8294;BME280;4185;41.506;24.938;2024-02-15T02:22:53;93624.13;;;5.23;84.38
8294;BME280;4185;41.506;24.938;2024-02-15T02:25:23;93630.56;;;5.25;84.53
8294;BME280;4185;41.506;24.938;2024-02-15T02:27:53;93636.13;;;5.31;84.81
8294;BME280;4185;41.506;24.938;2024-02-15T02:30:20;93639.41;;;5.26;84.30
8294;BME280;4185;41.506;24.938;2024-02-15T02:32:48;93638.22;;;5.27;84.24
8294;BME280;4185;41.506;24.938;2024-02-15T02:35:15;93635.50;;;5.27;84.95
8294;BME280;4185;41.506;24.938;2024-02-15T02:37:42;93637.00;;;5.28;84.81
8294;BME280;4185;41.506;24.938;2024-02-15T02:40:09;93636.72;;;5.26;84.63
8294;BME280;4185;41.506;24.938;2024-02-15T02:42:48;93641.19;;;5.20;84.01
8294;BME280;4185;41.506;24.938;2024-02-15T02:45:15;93634.91;;;5.14;82.84
8294;BME280;4185;41.506;24.938;2024-02-15T02:47:42;93645.69;;;5.14;83.60
8294;BME280;4185;41.506;24.938;2024-02-15T02:50:09;93643.00;;;5.14;83.59
8294;BME280;4185;41.506;24.938;2024-02-15T02:52:36;93644.78;;;5.17;83.33
8294;BME280;4185;41.506;24.938;2024-02-15T02:55:04;93648.69;;;5.16;83.85
8294;BME280;4185;41.506;24.938;2024-02-15T02:57:33;93648.69;;;5.16;83.48
8294;BME280;4185;41.506;24.938;2024-02-15T03:00:03;93653.00;;;5.13;83.73
8294;BME280;4185;41.506;24.938;2024-02-15T03:02:33;93644.63;;;5.11;83.29
8294;BME280;4185;41.506;24.938;2024-02-15T03:05:01;93639.53;;;5.13;82.85
8294;BME280;4185;41.506;24.938;2024-02-15T03:07:28;93644.75;;;5.08;82.41
8294;BME280;4185;41.506;24.938;2024-02-15T03:09:55;93644.63;;;5.02;81.88
8294;BME280;4185;41.506;24.938;2024-02-15T03:12:21;93648.94;;;4.99;83.21
8294;BME280;4185;41.506;24.938;2024-02-15T03:14:48;93652.06;;;4.98;82.94
8294;BME280;4185;41.506;24.938;2024-02-15T03:17:16;93652.22;;;4.94;83.89
8294;BME280;4185;41.506;24.938;2024-02-15T03:19:43;93646.97;;;4.91;84.83
8294;BME280;4185;41.506;24.938;2024-02-15T03:22:10;93645.31;;;4.84;84.29
8294;BME280;4185;41.506;24.938;2024-02-15T03:24:39;93647.13;;;4.87;84.67
8294;BME280;4185;41.506;24.938;2024-02-15T03:27:05;93642.63;;;4.84;85.15
8294;BME280;4185;41.506;24.938;2024-02-15T03:29:32;93642.63;;;4.84;85.24
8294;BME280;4185;41.506;24.938;2024-02-15T03:32:01;93651.16;;;4.83;85.44
8294;BME280;4185;41.506;24.938;2024-02-15T03:34:30;93643.25;;;4.88;85.20
8294;BME280;4185;41.506;24.938;2024-02-15T03:36:57;93650.88;;;4.90;84.94
8294;BME280;4185;41.506;24.938;2024-02-15T03:39:24;93649.50;;;4.85;85.20
8294;BME280;4185;41.506;24.938;2024-02-15T03:41:50;93642.63;;;4.84;85.71
8294;BME280;4185;41.506;24.938;2024-02-15T03:44:18;93636.34;;;4.87;85.05
8294;BME280;4185;41.506;24.938;2024-02-15T03:46:45;93639.78;;;4.88;85.47
8294;BME280;4185;41.506;24.938;2024-02-15T03:49:16;93642.63;;;4.84;85.90
8294;BME280;4185;41.506;24.938;2024-02-15T03:51:44;93635.13;;;4.79;86.31
8294;BME280;4185;41.506;24.938;2024-02-15T03:54:11;93644.28;;;4.82;85.94
8294;BME280;4185;41.506;24.938;2024-02-15T03:56:46;93651.16;;;4.83;86.00
8294;BME280;4185;41.506;24.938;2024-02-15T03:59:13;93649.34;;;4.80;86.30
8294;BME280;4185;41.506;24.938;2024-02-15T04:01:40;93649.94;;;4.75;86.82
8294;BME280;4185;41.506;24.938;2024-02-15T04:04:07;93650.06;;;4.71;87.04
8294;BME280;4185;41.506;24.938;2024-02-15T04:06:34;93653.66;;;4.77;86.23
8294;BME280;4185;41.506;24.938;2024-02-15T04:09:03;93656.03;;;4.75;87.10
8294;BME280;4185;41.506;24.938;2024-02-15T04:11:29;93646.03;;;4.76;86.68
8294;BME280;4185;41.506;24.938;2024-02-15T04:13:58;93654.28;;;4.81;86.04
8294;BME280;4185;41.506;24.938;2024-02-15T04:16:24;93648.28;;;4.77;84.74
8294;BME280;4185;41.506;24.938;2024-02-15T04:18:52;93645.28;;;4.75;85.62
8294;BME280;4185;41.506;24.938;2024-02-15T04:21:18;93647.69;;;4.73;84.74
8294;BME280;4185;41.506;24.938;2024-02-15T04:23:46;93645.84;;;4.61;84.95
8294;BME280;4185;41.506;24.938;2024-02-15T04:26:14;93646.72;;;4.58;85.41
8294;BME280;4185;41.506;24.938;2024-02-15T04:28:41;93643.75;;;4.56;85.88
8294;BME280;4185;41.506;24.938;2024-02-15T04:31:07;93646.00;;;4.58;85.56
8294;BME280;4185;41.506;24.938;2024-02-15T04:33:34;93645.38;;;4.54;85.66
8294;BME280;4185;41.506;24.938;2024-02-15T04:36:01;93641.50;;;4.55;85.06
8294;BME280;4185;41.506;24.938;2024-02-15T04:38:32;93647.28;;;4.44;85.63
8294;BME280;4185;41.506;24.938;2024-02-15T04:40:59;93644.69;;;4.32;85.85
8294;BME280;4185;41.506;24.938;2024-02-15T04:43:27;93641.88;;;4.35;86.31
8294;BME280;4185;41.506;24.938;2024-02-15T04:45:54;93652.94;;;4.37;85.77
8294;BME280;4185;41.506;24.938;2024-02-15T04:48:21;93646.94;;;4.33;85.35
8294;BME280;4185;41.506;24.938;2024-02-15T04:50:50;93653.94;;;4.31;84.99
8294;BME280;4185;41.506;24.938;2024-02-15T04:53:17;93651.25;;;4.31;84.71
8294;BME280;4185;41.506;24.938;2024-02-15T04:55:44;93656.31;;;4.29;84.25
8294;BME280;4185;41.506;24.938;2024-02-15T04:58:11;93667.22;;;4.25;82.96
8294;BME280;4185;41.506;24.938;2024-02-15T05:00:39;93660.91;;;4.19;82.77
8294;BME280;4185;41.506;24.938;2024-02-15T05:03:07;93669.84;;;4.16;83.37
8294;BME280;4185;41.506;24.938;2024-02-15T05:05:34;93666.25;;;4.10;82.35
8294;BME280;4185;41.506;24.938;2024-02-15T05:08:01;93676.06;;;4.04;81.82
8294;BME280;4185;41.506;24.938;2024-02-15T05:10:29;93675.13;;;3.98;82.25
8294;BME280;4185;41.506;24.938;2024-02-15T05:12:55;93676.91;;;4.01;82.56
8294;BME280;4185;41.506;24.938;2024-02-15T05:15:22;93688.88;;;4.00;81.43
8294;BME280;4185;41.506;24.938;2024-02-15T05:17:51;93682.13;;;3.96;81.28
8294;BME280;4185;41.506;24.938;2024-02-15T05:20:19;93682.56;;;3.94;81.69
8294;BME280;4185;41.506;24.938;2024-02-15T05:22:46;93693.88;;;3.89;80.79
8294;BME280;4185;41.506;24.938;2024-02-15T05:25:13;93685.50;;;3.87;82.39
8294;BME280;4185;41.506;24.938;2024-02-15T05:27:41;93698.00;;;3.81;82.99
8294;BME280;4185;41.506;24.938;2024-02-15T05:30:10;93695.00;;;3.79;82.61
8294;BME280;4185;41.506;24.938;2024-02-15T05:32:37;93699.00;;;3.74;83.47
8294;BME280;4185;41.506;24.938;2024-02-15T05:35:11;93693.53;;;3.65;83.91
8294;BME280;4185;41.506;24.938;2024-02-15T05:37:38;93700.19;;;3.73;83.46
8294;BME280;4185;41.506;24.938;2024-02-15T05:40:06;93698.88;;;3.78;82.94
8294;BME280;4185;41.506;24.938;2024-02-15T05:42:40;93705.69;;;3.70;83.05
8294;BME280;4185;41.506;24.938;2024-02-15T05:45:30;93714.47;;;3.70;83.30
8294;BME280;4185;41.506;24.938;2024-02-15T05:47:58;93714.34;;;3.74;83.61
8294;BME280;4185;41.506;24.938;2024-02-15T05:50:26;93709.22;;;3.67;83.49
8294;BME280;4185;41.506;24.938;2024-02-15T05:52:55;93715.13;;;3.74;83.56
8294;BME280;4185;41.506;24.938;2024-02-15T05:55:23;93719.94;;;3.80;83.25
8294;BME280;4185;41.506;24.938;2024-02-15T05:57:52;93723.38;;;3.80;82.85
8294;BME280;4185;41.506;24.938;2024-02-15T06:00:19;93720.47;;;3.74;82.95
8294;BME280;4185;41.506;24.938;2024-02-15T06:02:45;93730.47;;;3.74;83.06
8294;BME280;4185;41.506;24.938;2024-02-15T06:05:12;93727.34;;;3.75;82.85
8294;BME280;4185;41.506;24.938;2024-02-15T06:07:43;93731.44;;;3.80;82.17
8294;BME280;4185;41.506;24.938;2024-02-15T06:10:11;93737.97;;;3.79;81.67
8294;BME280;4185;41.506;24.938;2024-02-15T06:12:38;93731.34;;;3.71;81.90
8294;BME280;4185;41.506;24.938;2024-02-15T06:15:06;93733.59;;;3.72;82.84
8294;BME280;4185;41.506;24.938;2024-02-15T06:17:40;93737.91;;;3.70;82.93
8294;BME280;4185;41.506;24.938;2024-02-15T06:20:11;93748.97;;;3.72;82.34
8294;BME280;4185;41.506;24.938;2024-02-15T06:22:39;93745.97;;;3.70;81.58
8294;BME280;4185;41.506;24.938;2024-02-15T06:25:08;93749.84;;;3.69;81.78
8294;BME280;4185;41.506;24.938;2024-02-15T06:27:35;93745.41;;;3.75;82.19
8294;BME280;4185;41.506;24.938;2024-02-15T06:30:07;93747.91;;;3.69;81.54
8294;BME280;4185;41.506;24.938;2024-02-15T06:32:51;93750.59;;;3.69;81.97
8294;BME280;4185;41.506;24.938;2024-02-15T06:35:35;93745.47;;;3.84;81.63
8294;BME280;4185;41.506;24.938;2024-02-15T06:38:19;93751.59;;;3.85;80.93
8294;BME280;4185;41.506;24.938;2024-02-15T06:41:04;93748.34;;;3.90;81.34
8294;BME280;4185;41.506;24.938;2024-02-15T06:43:31;93757.09;;;4.03;80.07
8294;BME280;4185;41.506;24.938;2024-02-15T06:45:58;93749.47;;;4.01;80.52
8294;BME280;4185;41.506;24.938;2024-02-15T06:48:25;93751.06;;;4.11;79.61
8294;BME280;4185;41.506;24.938;2024-02-15T06:50:52;93756.50;;;4.20;79.60
8294;BME280;4185;41.506;24.938;2024-02-15T06:53:18;93757.38;;;4.17;79.49
8294;BME280;4185;41.506;24.938;2024-02-15T06:55:46;93747.22;;;4.21;79.02
8294;BME280;4185;41.506;24.938;2024-02-15T06:58:15;93754.47;;;4.33;78.29
8294;BME280;4185;41.506;24.938;2024-02-15T07:00:42;93755.75;;;4.41;77.81
8294;BME280;4185;41.506;24.938;2024-02-15T07:03:09;93757.75;;;4.50;77.48
8294;BME280;4185;41.506;24.938;2024-02-15T07:05:36;93750.41;;;4.50;77.71
8294;BME280;4185;41.506;24.938;2024-02-15T07:08:04;93743.56;;;4.58;75.36
8294;BME280;4185;41.506;24.938;2024-02-15T07:10:31;93751.06;;;4.63;76.22
8294;BME280;4185;41.506;24.938;2024-02-15T07:12:58;93753.81;;;4.72;75.31
8294;BME280;4185;41.506;24.938;2024-02-15T07:15:27;93746.03;;;4.74;75.62
8294;BME280;4185;41.506;24.938;2024-02-15T07:17:53;93751.03;;;4.85;75.25
8294;BME280;4185;41.506;24.938;2024-02-15T07:20:20;93749.09;;;4.94;75.61
8294;BME280;4185;41.506;24.938;2024-02-15T07:22:48;93749.88;;;5.04;74.27
8294;BME280;4185;41.506;24.938;2024-02-15T07:25:15;93739.28;;;5.10;73.53
8294;BME280;4185;41.506;24.938;2024-02-15T07:27:42;93740.94;;;5.16;74.33
8294;BME280;4185;41.506;24.938;2024-02-15T07:30:09;93747.13;;;5.26;72.73
8294;BME280;4185;41.506;24.938;2024-02-15T07:32:38;93745.94;;;5.36;71.71
8294;BME280;4185;41.506;24.938;2024-02-15T07:35:05;93741.63;;;5.47;71.84
8294;BME280;4185;41.506;24.938;2024-02-15T07:37:33;93740.44;;;5.57;71.75
8294;BME280;4185;41.506;24.938;2024-02-15T07:39:59;93743.31;;;5.63;71.45
8294;BME280;4185;41.506;24.938;2024-02-15T07:42:28;93741.81;;;5.71;71.88
8294;BME280;4185;41.506;24.938;2024-02-15T07:44:55;93740.19;;;5.82;71.08
8294;BME280;4185;41.506;24.938;2024-02-15T07:47:22;93739.16;;;5.89;70.56
8294;BME280;4185;41.506;24.938;2024-02-15T07:49:51;93742.16;;;6.00;71.17
8294;BME280;4185;41.506;24.938;2024-02-15T07:52:18;93729.09;;;6.07;70.25
8294;BME280;4185;41.506;24.938;2024-02-15T07:54:44;93739.44;;;6.18;71.33
8294;BME280;4185;41.506;24.938;2024-02-15T07:57:11;93732.06;;;6.28;69.11
8294;BME280;4185;41.506;24.938;2024-02-15T07:59:39;93737.00;;;6.38;69.15
8294;BME280;4185;41.506;24.938;2024-02-15T08:02:07;93732.06;;;6.46;68.56
8294;BME280;4185;41.506;24.938;2024-02-15T08:04:34;93727.06;;;6.53;67.40
8294;BME280;4185;41.506;24.938;2024-02-15T08:07:07;93736.66;;;6.63;67.69
8294;BME280;4185;41.506;24.938;2024-02-15T08:09:36;93726.59;;;6.73;66.27
8294;BME280;4185;41.506;24.938;2024-02-15T08:12:03;93725.81;;;6.81;66.30
8294;BME280;4185;41.506;24.938;2024-02-15T08:14:30;93731.47;;;6.92;65.03
8294;BME280;4185;41.506;24.938;2024-02-15T08:16:57;93724.41;;;6.95;62.11
8294;BME280;4185;41.506;24.938;2024-02-15T08:19:23;93733.50;;;7.06;64.30
8294;BME280;4185;41.506;24.938;2024-02-15T08:21:50;93730.94;;;7.12;63.14
8294;BME280;4185;41.506;24.938;2024-02-15T08:24:18;93724.16;;;7.16;61.37
8294;BME280;4185;41.506;24.938;2024-02-15T08:26:45;93730.13;;;7.20;61.57
8294;BME280;4185;41.506;24.938;2024-02-15T08:29:12;93727.69;;;7.31;62.44
8294;BME280;4185;41.506;24.938;2024-02-15T08:31:40;93738.09;;;7.47;61.62
8294;BME280;4185;41.506;24.938;2024-02-15T08:34:07;93748.22;;;7.62;61.72
8294;BME280;4185;41.506;24.938;2024-02-15T08:36:39;93749.34;;;7.70;59.97
8294;BME280;4185;41.506;24.938;2024-02-15T08:39:06;93744.81;;;7.76;59.56
8294;BME280;4185;41.506;24.938;2024-02-15T08:41:35;93749.91;;;7.83;57.88
8294;BME280;4185;41.506;24.938;2024-02-15T08:44:01;93752.25;;;7.90;57.15
8294;BME280;4185;41.506;24.938;2024-02-15T08:46:33;93747.84;;;7.92;57.20
8294;BME280;4185;41.506;24.938;2024-02-15T08:49:01;93754.41;;;8.00;57.90
8294;BME280;4185;41.506;24.938;2024-02-15T08:51:28;93748.75;;;8.13;55.51
8294;BME280;4185;41.506;24.938;2024-02-15T08:53:55;93743.16;;;8.16;56.26
8294;BME280;4185;41.506;24.938;2024-02-15T08:56:22;93747.03;;;8.24;55.62
8294;BME280;4185;41.506;24.938;2024-02-15T08:58:50;93739.56;;;8.34;55.43
8294;BME280;4185;41.506;24.938;2024-02-15T09:01:17;93754.44;;;8.38;54.41
8294;BME280;4185;41.506;24.938;2024-02-15T09:03:43;93747.91;;;8.45;54.02
8294;BME280;4185;41.506;24.938;2024-02-15T09:06:11;93751.66;;;8.62;53.58
8294;BME280;4185;41.506;24.938;2024-02-15T09:08:37;93739.41;;;8.67;52.73
8294;BME280;4185;41.506;24.938;2024-02-15T09:11:04;93738.00;;;8.71;52.23
8294;BME280;4185;41.506;24.938;2024-02-15T09:13:31;93738.00;;;8.86;53.44
8294;BME280;4185;41.506;24.938;2024-02-15T09:16:00;93734.81;;;9.02;53.07
8294;BME280;4185;41.506;24.938;2024-02-15T09:18:28;93733.75;;;9.14;52.86
8294;BME280;4185;41.506;24.938;2024-02-15T09:20:55;93735.91;;;9.24;52.25
8294;BME280;4185;41.506;24.938;2024-02-15T09:23:22;93735.50;;;9.31;51.94
8294;BME280;4185;41.506;24.938;2024-02-15T09:25:49;93726.50;;;9.40;50.05
8294;BME280;4185;41.506;24.938;2024-02-15T09:28:17;93730.69;;;9.55;51.45
8294;BME280;4185;41.506;24.938;2024-02-15T09:30:47;93724.31;;;9.78;51.20
8294;BME280;4185;41.506;24.938;2024-02-15T09:33:18;93728.03;;;9.81;49.15
8294;BME280;4185;41.506;24.938;2024-02-15T09:35:45;93716.16;;;9.99;50.48
8294;BME280;4185;41.506;24.938;2024-02-15T09:38:12;93727.16;;;10.10;48.95
8294;BME280;4185;41.506;24.938;2024-02-15T09:40:42;93722.00;;;9.92;47.61
8294;BME280;4185;41.506;24.938;2024-02-15T09:43:09;93728.78;;;9.81;47.87
8294;BME280;4185;41.506;24.938;2024-02-15T09:45:38;93714.03;;;9.82;47.90
8294;BME280;4185;41.506;24.938;2024-02-15T09:48:06;93712.66;;;9.93;48.79
8294;BME280;4185;41.506;24.938;2024-02-15T09:50:39;93716.97;;;9.84;46.12
8294;BME280;4185;41.506;24.938;2024-02-15T09:53:08;93716.66;;;9.97;47.69
8294;BME280;4185;41.506;24.938;2024-02-15T09:55:35;93707.03;;;10.16;47.60
8294;BME280;4185;41.506;24.938;2024-02-15T09:58:03;93710.75;;;10.19;46.83
8294;BME280;4185;41.506;24.938;2024-02-15T10:00:31;93709.31;;;10.23;45.77
8294;BME280;4185;41.506;24.938;2024-02-15T10:03:00;93702.66;;;10.24;46.34
8294;BME280;4185;41.506;24.938;2024-02-15T10:05:28;93698.88;;;10.42;45.44
8294;BME280;4185;41.506;24.938;2024-02-15T10:07:57;93696.84;;;10.37;44.87
8294;BME280;4185;41.506;24.938;2024-02-15T10:10:27;93694.94;;;10.43;45.35
8294;BME280;4185;41.506;24.938;2024-02-15T10:12:54;93680.53;;;10.57;44.93
8294;BME280;4185;41.506;24.938;2024-02-15T10:15:29;93686.81;;;10.74;45.74
8294;BME280;4185;41.506;24.938;2024-02-15T10:17:57;93678.88;;;11.01;45.91
8294;BME280;4185;41.506;24.938;2024-02-15T10:20:25;93687.38;;;11.15;45.34
8294;BME280;4185;41.506;24.938;2024-02-15T10:22:53;93676.50;;;11.15;44.64
8294;BME280;4185;41.506;24.938;2024-02-15T10:25:22;93684.09;;;11.05;44.31
8294;BME280;4185;41.506;24.938;2024-02-15T10:27:49;93671.38;;;10.85;44.54
8294;BME280;4185;41.506;24.938;2024-02-15T10:30:17;93683.94;;;11.20;44.76
8294;BME280;4185;41.506;24.938;2024-02-15T10:32:44;93693.31;;;11.55;45.31
8294;BME280;4185;41.506;24.938;2024-02-15T10:35:18;93679.41;;;11.42;43.13
8294;BME280;4185;41.506;24.938;2024-02-15T10:37:46;93680.69;;;11.10;43.49
8294;BME280;4185;41.506;24.938;2024-02-15T10:40:17;93679.94;;;11.09;43.82
8294;BME280;4185;41.506;24.938;2024-02-15T10:42:46;93677.63;;;11.34;43.30
8294;BME280;4185;41.506;24.938;2024-02-15T10:45:15;93677.78;;;11.19;43.43
8294;BME280;4185;41.506;24.938;2024-02-15T10:47:44;93672.84;;;11.18;44.05
8294;BME280;4185;41.506;24.938;2024-02-15T10:50:12;93684.63;;;11.46;44.50
8294;BME280;4185;41.506;24.938;2024-02-15T10:52:44;93677.91;;;11.83;43.84
8294;BME280;4185;41.506;24.938;2024-02-15T10:55:21;93677.75;;;12.09;42.99
8294;BME280;4185;41.506;24.938;2024-02-15T10:57:51;93663.19;;;12.28;42.31
8294;BME280;4185;41.506;24.938;2024-02-15T11:00:21;93669.16;;;12.44;41.73
8294;BME280;4185;41.506;24.938;2024-02-15T11:03:00;93667.94;;;12.56;42.01
8294;BME280;4185;41.506;24.938;2024-02-15T11:05:32;93660.50;;;12.51;41.04
8294;BME280;4185;41.506;24.938;2024-02-15T11:08:03;93667.22;;;12.61;41.53
8294;BME280;4185;41.506;24.938;2024-02-15T11:10:32;93655.56;;;12.88;42.21
8294;BME280;4185;41.506;24.938;2024-02-15T11:13:01;93658.28;;;13.21;42.20
8294;BME280;4185;41.506;24.938;2024-02-15T11:15:41;93659.75;;;13.44;40.49
8294;BME280;4185;41.506;24.938;2024-02-15T11:18:07;93664.44;;;13.55;41.16
8294;BME280;4185;41.506;24.938;2024-02-15T11:20:47;93657.41;;;13.81;41.28
8294;BME280;4185;41.506;24.938;2024-02-15T11:23:25;93659.84;;;13.90;39.95
8294;BME280;4185;41.506;24.938;2024-02-15T11:25:52;93662.78;;;14.03;39.76
8294;BME280;4185;41.506;24.938;2024-02-15T11:28:47;93651.47;;;13.72;38.45
8294;BME280;4185;41.506;24.938;2024-02-15T11:31:53;93645.56;;;13.57;39.05
8294;BME280;4185;41.506;24.938;2024-02-15T11:34:44;93650.16;;;13.89;40.10
8294;BME280;4185;41.506;24.938;2024-02-15T11:41:04;93641.38;;;14.13;37.39
8294;BME280;4185;41.506;24.938;2024-02-15T11:43:50;93648.22;;;13.84;38.21
8294;BME280;4185;41.506;24.938;2024-02-15T11:46:21;93632.28;;;13.94;38.69
8294;BME280;4185;41.506;24.938;2024-02-15T11:48:51;93646.44;;;13.92;38.16
8294;BME280;4185;41.506;24.938;2024-02-15T11:51:28;93646.50;;;13.76;38.35
8294;BME280;4185;41.506;24.938;2024-02-15T11:54:03;93640.06;;;13.73;38.73
8294;BME280;4185;41.506;24.938;2024-02-15T11:56:48;93642.75;;;13.79;38.63
8294;BME280;4185;41.506;24.938;2024-02-15T11:59:18;93640.25;;;13.86;38.62
8294;BME280;4185;41.506;24.938;2024-02-15T12:01:55;93635.88;;;14.18;38.37
8294;BME280;4185;41.506;24.938;2024-02-15T12:04:39;93642.63;;;14.12;38.77
8294;BME280;4185;41.506;24.938;2024-02-15T12:07:24;93641.63;;;14.15;38.50
8294;BME280;4185;41.506;24.938;2024-02-15T12:10:15;93641.34;;;14.64;38.00
8294;BME280;4185;41.506;24.938;2024-02-15T12:12:59;93643.50;;;14.72;37.70
8294;BME280;4185;41.506;24.938;2024-02-15T12:15:57;93636.03;;;14.42;37.05
8294;BME280;4185;41.506;24.938;2024-02-15T12:18:41;93644.19;;;13.96;37.74
8294;BME280;4185;41.506;24.938;2024-02-15T12:21:12;93631.91;;;13.57;39.05
8294;BME280;4185;41.506;24.938;2024-02-15T12:23:41;93642.38;;;13.41;38.48
8294;BME280;4185;41.506;24.938;2024-02-15T12:26:08;93655.59;;;13.04;38.87
8294;BME280;4185;41.506;24.938;2024-02-15T12:28:34;93642.44;;;12.86;39.71
8294;BME280;4185;41.506;24.938;2024-02-15T12:31:03;93661.75;;;12.61;39.71
8294;BME280;4185;41.506;24.938;2024-02-15T12:33:32;93658.53;;;12.46;40.05
8294;BME280;4185;41.506;24.938;2024-02-15T12:36:06;93652.09;;;12.71;39.73
8294;BME280;4185;41.506;24.938;2024-02-15T12:38:33;93652.84;;;13.32;39.68
8294;BME280;4185;41.506;24.938;2024-02-15T12:41:03;93644.31;;;13.63;38.79
8294;BME280;4185;41.506;24.938;2024-02-15T12:43:29;93635.59;;;13.70;38.44
8294;BME280;4185;41.506;24.938;2024-02-15T12:45:56;93641.41;;;13.33;38.92
8294;BME280;4185;41.506;24.938;2024-02-15T12:48:24;93657.56;;;13.09;39.71
8294;BME280;4185;41.506;24.938;2024-02-15T12:50:52;93645.88;;;12.37;39.69
8294;BME280;4185;41.506;24.938;2024-02-15T12:53:23;93644.63;;;12.33;40.50
8294;BME280;4185;41.506;24.938;2024-02-15T12:55:53;93654.03;;;12.32;40.71
8294;BME280;4185;41.506;24.938;2024-02-15T12:58:21;93653.28;;;12.25;40.60
8294;BME280;4185;41.506;24.938;2024-02-15T13:00:50;93655.03;;;12.28;41.28
8294;BME280;4185;41.506;24.938;2024-02-15T13:03:16;93651.09;;;12.41;40.90
8294;BME280;4185;41.506;24.938;2024-02-15T13:05:44;93654.03;;;12.32;40.43
8294;BME280;4185;41.506;24.938;2024-02-15T13:08:14;93654.94;;;11.95;40.57
8294;BME280;4185;41.506;24.938;2024-02-15T13:10:43;93650.00;;;11.99;41.87
8294;BME280;4185;41.506;24.938;2024-02-15T13:13:10;93646.53;;;11.99;41.06
8294;BME280;4185;41.506;24.938;2024-02-15T13:15:39;93661.16;;;12.07;40.47
8294;BME280;4185;41.506;24.938;2024-02-15T13:18:06;93652.94;;;11.96;41.50
8294;BME280;4185;41.506;24.938;2024-02-15T13:20:35;93644.00;;;11.84;41.34
8294;BME280;4185;41.506;24.938;2024-02-15T13:23:05;93651.19;;;11.87;40.89
8294;BME280;4185;41.506;24.938;2024-02-15T13:25:35;93652.47;;;11.92;41.57
8294;BME280;4185;41.506;24.938;2024-02-15T13:28:03;93657.16;;;12.02;41.28
8294;BME280;4185;41.506;24.938;2024-02-15T13:30:30;93657.06;;;11.69;41.37
8294;BME280;4185;41.506;24.938;2024-02-15T13:32:57;93657.50;;;11.57;41.50